sensor_id;sensor_type;location;lat;lon;timestamp;pressure;altitude;pressure_sealevel;temperature;humidity
7200;BME280;3641;49.082;8.200;2023-04-26T00:01:33;100503.31;;;6.85;94.11
7200;BME280;3641;49.082;8.200;2023-04-26T00:03:59;100505.50;;;7.07;93.23
7200;BME280;3641;49.082;8.200;2023-04-26T00:06:27;100500.09;;;7.07;92.83
7200;BME280;3641;49.082;8.200;2023-04-26T00:08:54;100498.56;;;6.87;94.18
7200;BME280;3641;49.082;8.200;2023-04-26T00:11:21;100504.47;;;6.82;94.82
7200;BME280;3641;49.082;8.200;2023-04-26T00:13:47;100501.88;;;6.99;93.49
7200;BME280;3641;49.082;8.200;2023-04-26T00:16:14;100500.91;;;7.26;90.48
7200;BME280;3641;49.082;8.200;2023-04-26T00:18:41;100502.31;;;6.68;93.79
7200;BME280;3641;49.082;8.200;2023-04-26T00:21:07;100503.56;;;6.73;94.96
7200;BME280;3641;49.082;8.200;2023-04-26T00:23:33;100504.78;;;6.79;94.69
7200;BME280;3641;49.082;8.200;2023-04-26T00:26:02;100507.69;;;6.42;96.53
7200;BME280;3641;49.082;8.200;2023-04-26T00:28:28;100504.69;;;6.89;93.86
7200;BME280;3641;49.082;8.200;2023-04-26T00:30:55;100502.56;;;6.39;95.74
7200;BME280;3641;49.082;8.200;2023-04-26T00:33:22;100501.78;;;6.64;95.70
7200;BME280;3641;49.082;8.200;2023-04-26T00:35:48;100501.34;;;6.95;92.86
7200;BME280;3641;49.082;8.200;2023-04-26T00:38:15;100500.84;;;6.73;93.37
7200;BME280;3641;49.082;8.200;2023-04-26T00:40:41;100498.44;;;6.70;93.82
7200;BME280;3641;49.082;8.200;2023-04-26T00:43:09;100499.09;;;6.90;91.29
7200;BME280;3641;49.082;8.200;2023-04-26T00:45:36;100500.56;;;7.03;90.58
7200;BME280;3641;49.082;8.200;2023-04-26T00:48:03;100495.44;;;7.00;90.93
7200;BME280;3641;49.082;8.200;2023-04-26T00:50:30;100498.91;;;6.66;92.66
7200;BME280;3641;49.082;8.200;2023-04-26T00:52:57;100501.97;;;6.89;91.19
7200;BME280;3641;49.082;8.200;2023-04-26T00:55:24;100508.03;;;6.83;90.68
7200;BME280;3641;49.082;8.200;2023-04-26T00:57:51;100502.16;;;6.69;92.67
7200;BME280;3641;49.082;8.200;2023-04-26T01:00:20;100494.38;;;6.93;90.81
7200;BME280;3641;49.082;8.200;2023-04-26T01:02:47;100496.56;;;6.71;90.90
7200;BME280;3641;49.082;8.200;2023-04-26T01:05:13;100496.88;;;6.68;91.58
7200;BME280;3641;49.082;8.200;2023-04-26T01:07:40;100501.50;;;6.49;91.61
7200;BME280;3641;49.082;8.200;2023-04-26T01:10:07;100500.00;;;6.37;92.46
7200;BME280;3641;49.082;8.200;2023-04-26T01:12:36;100497.22;;;6.29;92.17
7200;BME280;3641;49.082;8.200;2023-04-26T01:15:04;100491.44;;;6.14;93.39
7200;BME280;3641;49.082;8.200;2023-04-26T01:17:33;100497.91;;;6.13;93.82
7200;BME280;3641;49.082;8.200;2023-04-26T01:20:02;100495.19;;;6.49;90.93
7200;BME280;3641;49.082;8.200;2023-04-26T01:22:33;100500.06;;;6.45;90.46
7200;BME280;3641;49.082;8.200;2023-04-26T01:25:00;100492.31;;;6.50;91.98
7200;BME280;3641;49.082;8.200;2023-04-26T01:27:27;100492.47;;;6.67;89.70
7200;BME280;3641;49.082;8.200;2023-04-26T01:29:54;100494.19;;;6.32;91.77
7200;BME280;3641;49.082;8.200;2023-04-26T01:32:21;100495.03;;;6.32;91.77
7200;BME280;3641;49.082;8.200;2023-04-26T01:34:47;100491.94;;;6.27;91.07
7200;BME280;3641;49.082;8.200;2023-04-26T01:37:13;100489.63;;;6.32;91.16
7200;BME280;3641;49.082;8.200;2023-04-26T01:39:41;100499.22;;;6.45;90.15
7200;BME280;3641;49.082;8.200;2023-04-26T01:42:08;100492.72;;;6.38;90.29
7200;BME280;3641;49.082;8.200;2023-04-26T01:44:34;100489.53;;;6.42;89.51
7200;BME280;3641;49.082;8.200;2023-04-26T01:47:01;100505.06;;;5.76;91.84
7200;BME280;3641;49.082;8.200;2023-04-26T01:49:27;100499.66;;;6.22;90.94
7200;BME280;3641;49.082;8.200;2023-04-26T01:51:54;100491.75;;;6.11;91.07
7200;BME280;3641;49.082;8.200;2023-04-26T01:54:20;100496.47;;;6.09;90.67
7200;BME280;3641;49.082;8.200;2023-04-26T01:56:48;100502.53;;;5.65;92.53
7200;BME280;3641;49.082;8.200;2023-04-26T01:59:15;100501.06;;;5.43;92.73
7200;BME280;3641;49.082;8.200;2023-04-26T02:01:41;100499.88;;;5.55;93.17
7200;BME280;3641;49.082;8.200;2023-04-26T02:04:08;100500.81;;;5.92;90.56
7200;BME280;3641;49.082;8.200;2023-04-26T02:06:34;100501.28;;;5.97;88.94
7200;BME280;3641;49.082;8.200;2023-04-26T02:09:02;100501.06;;;5.71;90.15
7200;BME280;3641;49.082;8.200;2023-04-26T02:11:28;100505.09;;;5.94;89.14
7200;BME280;3641;49.082;8.200;2023-04-26T02:13:56;100500.66;;;6.03;88.18
7200;BME280;3641;49.082;8.200;2023-04-26T02:16:23;100509.81;;;5.92;88.60
7200;BME280;3641;49.082;8.200;2023-04-26T02:18:49;100513.78;;;5.98;88.49
7200;BME280;3641;49.082;8.200;2023-04-26T02:21:17;100509.41;;;5.59;92.59
7200;BME280;3641;49.082;8.200;2023-04-26T02:23:44;100511.47;;;5.75;91.98
7200;BME280;3641;49.082;8.200;2023-04-26T02:26:10;100504.69;;;5.61;91.04
7200;BME280;3641;49.082;8.200;2023-04-26T02:28:37;100506.06;;;5.38;91.79
7200;BME280;3641;49.082;8.200;2023-04-26T02:31:05;100509.44;;;5.77;89.04
7200;BME280;3641;49.082;8.200;2023-04-26T02:33:31;100499.50;;;5.78;89.23
7200;BME280;3641;49.082;8.200;2023-04-26T02:35:58;100504.97;;;5.68;88.36
7200;BME280;3641;49.082;8.200;2023-04-26T02:38:27;100512.25;;;5.58;89.38
7200;BME280;3641;49.082;8.200;2023-04-26T02:40:57;100507.56;;;5.50;91.85
7200;BME280;3641;49.082;8.200;2023-04-26T02:43:24;100517.09;;;5.26;93.55
7200;BME280;3641;49.082;8.200;2023-04-26T02:45:50;100512.94;;;5.22;93.24
7200;BME280;3641;49.082;8.200;2023-04-26T02:48:18;100513.59;;;4.87;93.14
7200;BME280;3641;49.082;8.200;2023-04-26T02:50:45;100514.94;;;5.30;92.73
7200;BME280;3641;49.082;8.200;2023-04-26T02:53:12;100523.16;;;5.38;92.18
7200;BME280;3641;49.082;8.200;2023-04-26T02:55:38;100518.56;;;5.49;90.55
7200;BME280;3641;49.082;8.200;2023-04-26T02:58:05;100513.31;;;4.90;93.53
7200;BME280;3641;49.082;8.200;2023-04-26T03:00:31;100517.38;;;5.14;93.80
7200;BME280;3641;49.082;8.200;2023-04-26T03:02:59;100516.91;;;5.28;92.58
7200;BME280;3641;49.082;8.200;2023-04-26T03:05:27;100514.69;;;5.04;90.39
7200;BME280;3641;49.082;8.200;2023-04-26T03:07:53;100520.50;;;5.28;90.61
7200;BME280;3641;49.082;8.200;2023-04-26T03:10:20;100514.06;;;5.39;88.68
7200;BME280;3641;49.082;8.200;2023-04-26T03:12:46;100510.34;;;5.31;87.72
7200;BME280;3641;49.082;8.200;2023-04-26T03:15:13;100509.09;;;5.15;88.54
7200;BME280;3641;49.082;8.200;2023-04-26T03:17:39;100509.94;;;5.25;88.48
7200;BME280;3641;49.082;8.200;2023-04-26T03:20:07;100504.13;;;5.20;87.97
7200;BME280;3641;49.082;8.200;2023-04-26T03:22:36;100513.06;;;5.31;87.55
7200;BME280;3641;49.082;8.200;2023-04-26T03:25:03;100513.59;;;4.97;88.25
7200;BME280;3641;49.082;8.200;2023-04-26T03:27:30;100499.78;;;4.80;88.61
7200;BME280;3641;49.082;8.200;2023-04-26T03:29:56;100509.59;;;4.91;87.87
7200;BME280;3641;49.082;8.200;2023-04-26T03:32:23;100511.72;;;4.87;87.92
7200;BME280;3641;49.082;8.200;2023-04-26T03:34:49;100509.00;;;4.97;87.20
7200;BME280;3641;49.082;8.200;2023-04-26T03:37:16;100520.09;;;5.04;86.92
7200;BME280;3641;49.082;8.200;2023-04-26T03:39:44;100521.44;;;4.90;86.73
7200;BME280;3641;49.082;8.200;2023-04-26T03:42:10;100524.56;;;4.76;86.93
7200;BME280;3641;49.082;8.200;2023-04-26T03:44:37;100519.13;;;4.66;89.63
7200;BME280;3641;49.082;8.200;2023-04-26T03:47:03;100517.03;;;4.60;89.96
7200;BME280;3641;49.082;8.200;2023-04-26T03:49:30;100515.31;;;4.78;88.48
7200;BME280;3641;49.082;8.200;2023-04-26T03:51:57;100512.03;;;4.84;89.18
7200;BME280;3641;49.082;8.200;2023-04-26T03:54:23;100508.19;;;4.67;89.90
7200;BME280;3641;49.082;8.200;2023-04-26T03:56:51;100506.06;;;4.71;91.86
7200;BME280;3641;49.082;8.200;2023-04-26T03:59:17;100512.63;;;4.49;92.03
7200;BME280;3641;49.082;8.200;2023-04-26T04:01:44;100507.06;;;4.70;90.16
7200;BME280;3641;49.082;8.200;2023-04-26T04:04:10;100499.34;;;4.85;87.87
7200;BME280;3641;49.082;8.200;2023-04-26T04:06:37;100501.63;;;4.80;87.35
7200;BME280;3641;49.082;8.200;2023-04-26T04:09:03;100502.78;;;4.67;88.83
7200;BME280;3641;49.082;8.200;2023-04-26T04:11:30;100511.19;;;4.74;87.94
7200;BME280;3641;49.082;8.200;2023-04-26T04:13:58;100510.47;;;4.62;87.65
7200;BME280;3641;49.082;8.200;2023-04-26T04:16:25;100500.78;;;4.50;88.66
7200;BME280;3641;49.082;8.200;2023-04-26T04:18:51;100512.06;;;4.45;88.98
7200;BME280;3641;49.082;8.200;2023-04-26T04:21:18;100503.63;;;4.19;88.92
7200;BME280;3641;49.082;8.200;2023-04-26T04:23:44;100505.31;;;4.10;89.49
7200;BME280;3641;49.082;8.200;2023-04-26T04:26:11;100508.91;;;4.40;87.05
7200;BME280;3641;49.082;8.200;2023-04-26T04:28:38;100505.50;;;4.48;85.94
7200;BME280;3641;49.082;8.200;2023-04-26T04:31:07;100508.91;;;4.40;86.82
7200;BME280;3641;49.082;8.200;2023-04-26T04:33:34;100511.75;;;4.39;87.24
7200;BME280;3641;49.082;8.200;2023-04-26T04:36:00;100513.84;;;4.15;87.33
7200;BME280;3641;49.082;8.200;2023-04-26T04:38:27;100511.88;;;4.17;86.63
7200;BME280;3641;49.082;8.200;2023-04-26T04:40:54;100516.28;;;4.18;86.40
7200;BME280;3641;49.082;8.200;2023-04-26T04:43:21;100517.81;;;4.11;88.83
7200;BME280;3641;49.082;8.200;2023-04-26T04:45:47;100523.22;;;4.11;87.98
7200;BME280;3641;49.082;8.200;2023-04-26T04:48:15;100524.78;;;3.63;87.95
7200;BME280;3641;49.082;8.200;2023-04-26T04:50:42;100536.84;;;3.07;92.23
7200;BME280;3641;49.082;8.200;2023-04-26T04:53:09;100535.63;;;3.12;93.22
7200;BME280;3641;49.082;8.200;2023-04-26T04:55:36;100534.84;;;3.21;93.62
7200;BME280;3641;49.082;8.200;2023-04-26T04:58:03;100543.84;;;3.10;93.21
7200;BME280;3641;49.082;8.200;2023-04-26T05:00:30;100545.19;;;3.47;92.86
7200;BME280;3641;49.082;8.200;2023-04-26T05:02:58;100541.16;;;3.41;93.35
7200;BME280;3641;49.082;8.200;2023-04-26T05:05:26;100549.22;;;3.31;93.63
7200;BME280;3641;49.082;8.200;2023-04-26T05:07:52;100544.16;;;3.17;94.03
7200;BME280;3641;49.082;8.200;2023-04-26T05:10:19;100544.88;;;3.40;95.28
7200;BME280;3641;49.082;8.200;2023-04-26T05:12:45;100551.88;;;3.21;94.59
7200;BME280;3641;49.082;8.200;2023-04-26T05:15:12;100548.56;;;3.39;94.79
7200;BME280;3641;49.082;8.200;2023-04-26T05:17:38;100555.13;;;3.25;95.05
7200;BME280;3641;49.082;8.200;2023-04-26T05:20:06;100550.81;;;3.64;95.60
7200;BME280;3641;49.082;8.200;2023-04-26T05:22:34;100560.50;;;3.46;94.33
7200;BME280;3641;49.082;8.200;2023-04-26T05:25:01;100558.91;;;3.64;93.90
7200;BME280;3641;49.082;8.200;2023-04-26T05:27:29;100559.50;;;4.09;90.11
7200;BME280;3641;49.082;8.200;2023-04-26T05:29:55;100562.94;;;4.30;89.39
7200;BME280;3641;49.082;8.200;2023-04-26T05:32:22;100560.66;;;4.35;89.94
7200;BME280;3641;49.082;8.200;2023-04-26T05:34:48;100555.84;;;4.39;90.04
7200;BME280;3641;49.082;8.200;2023-04-26T05:37:15;100564.09;;;4.38;91.69
7200;BME280;3641;49.082;8.200;2023-04-26T05:39:43;100564.25;;;4.36;91.83
7200;BME280;3641;49.082;8.200;2023-04-26T05:42:09;100573.19;;;4.27;94.16
7200;BME280;3641;49.082;8.200;2023-04-26T05:44:36;100568.97;;;4.53;91.65
7200;BME280;3641;49.082;8.200;2023-04-26T05:47:02;100568.53;;;4.58;90.89
7200;BME280;3641;49.082;8.200;2023-04-26T05:49:29;100577.06;;;4.63;90.07
7200;BME280;3641;49.082;8.200;2023-04-26T05:51:58;100578.50;;;4.77;89.65
7200;BME280;3641;49.082;8.200;2023-04-26T05:54:24;100586.91;;;4.84;88.47
7200;BME280;3641;49.082;8.200;2023-04-26T05:56:52;100589.03;;;4.80;88.72
7200;BME280;3641;49.082;8.200;2023-04-26T05:59:19;100589.59;;;4.94;88.41
7200;BME280;3641;49.082;8.200;2023-04-26T06:01:45;100585.19;;;5.02;87.76
7200;BME280;3641;49.082;8.200;2023-04-26T06:04:12;100588.34;;;5.07;87.84
7200;BME280;3641;49.082;8.200;2023-04-26T06:06:38;100589.31;;;5.06;88.63
7200;BME280;3641;49.082;8.200;2023-04-26T06:09:05;100594.88;;;4.85;88.59
7200;BME280;3641;49.082;8.200;2023-04-26T06:11:32;100594.88;;;4.85;89.23
7200;BME280;3641;49.082;8.200;2023-04-26T06:14:00;100605.69;;;5.05;89.34
7200;BME280;3641;49.082;8.200;2023-04-26T06:16:27;100601.69;;;5.28;87.50
7200;BME280;3641;49.082;8.200;2023-04-26T06:18:53;100601.41;;;5.22;87.54
7200;BME280;3641;49.082;8.200;2023-04-26T06:21:19;100590.53;;;5.41;87.10
7200;BME280;3641;49.082;8.200;2023-04-26T06:23:46;100593.13;;;5.43;85.76
7200;BME280;3641;49.082;8.200;2023-04-26T06:26:12;100584.94;;;5.62;85.83
7200;BME280;3641;49.082;8.200;2023-04-26T06:28:39;100595.47;;;5.66;85.67
7200;BME280;3641;49.082;8.200;2023-04-26T06:31:07;100589.38;;;5.54;84.60
7200;BME280;3641;49.082;8.200;2023-04-26T06:33:33;100594.47;;;5.67;84.88
7200;BME280;3641;49.082;8.200;2023-04-26T06:36:00;100595.47;;;5.66;84.75
7200;BME280;3641;49.082;8.200;2023-04-26T06:38:26;100595.22;;;5.59;85.62
7200;BME280;3641;49.082;8.200;2023-04-26T06:40:52;100593.00;;;5.72;85.56
7200;BME280;3641;49.082;8.200;2023-04-26T06:43:19;100598.81;;;5.87;84.69
7200;BME280;3641;49.082;8.200;2023-04-26T06:45:45;100592.88;;;5.74;83.82
7200;BME280;3641;49.082;8.200;2023-04-26T06:48:13;100593.56;;;5.86;85.01
7200;BME280;3641;49.082;8.200;2023-04-26T06:50:40;100601.53;;;5.87;82.84
7200;BME280;3641;49.082;8.200;2023-04-26T06:53:06;100593.28;;;6.16;83.78
7200;BME280;3641;49.082;8.200;2023-04-26T06:55:33;100585.47;;;6.13;83.67
7200;BME280;3641;49.082;8.200;2023-04-26T06:57:59;100591.94;;;6.03;82.13
7200;BME280;3641;49.082;8.200;2023-04-26T07:00:26;100585.50;;;6.31;82.60
7200;BME280;3641;49.082;8.200;2023-04-26T07:02:54;100584.34;;;6.34;81.73
7200;BME280;3641;49.082;8.200;2023-04-26T07:05:22;100584.97;;;6.46;81.20
7200;BME280;3641;49.082;8.200;2023-04-26T07:07:48;100570.28;;;6.48;81.83
7200;BME280;3641;49.082;8.200;2023-04-26T07:10:15;100574.19;;;6.64;82.45
7200;BME280;3641;49.082;8.200;2023-04-26T07:12:41;100581.13;;;6.48;79.05
7200;BME280;3641;49.082;8.200;2023-04-26T07:15:08;100575.56;;;6.68;81.41
7200;BME280;3641;49.082;8.200;2023-04-26T07:17:35;100571.22;;;6.75;81.42
7200;BME280;3641;49.082;8.200;2023-04-26T07:20:02;100572.00;;;6.85;81.49
7200;BME280;3641;49.082;8.200;2023-04-26T07:22:31;100570.69;;;6.89;81.07
7200;BME280;3641;49.082;8.200;2023-04-26T07:24:57;100572.16;;;6.84;80.79
7200;BME280;3641;49.082;8.200;2023-04-26T07:27:24;100573.25;;;6.91;80.83
7200;BME280;3641;49.082;8.200;2023-04-26T07:29:52;100570.13;;;7.04;81.72
7200;BME280;3641;49.082;8.200;2023-04-26T07:32:19;100573.69;;;7.04;81.49
7200;BME280;3641;49.082;8.200;2023-04-26T07:34:45;100575.84;;;7.19;82.45
7200;BME280;3641;49.082;8.200;2023-04-26T07:37:12;100569.50;;;7.10;79.42
7200;BME280;3641;49.082;8.200;2023-04-26T07:39:39;100585.06;;;7.26;81.86
7200;BME280;3641;49.082;8.200;2023-04-26T07:42:06;100576.25;;;7.32;81.44
7200;BME280;3641;49.082;8.200;2023-04-26T07:44:32;100583.19;;;7.26;79.50
7200;BME280;3641;49.082;8.200;2023-04-26T07:46:59;100576.81;;;7.36;80.03
7200;BME280;3641;49.082;8.200;2023-04-26T07:49:25;100575.16;;;7.43;79.47
7200;BME280;3641;49.082;8.200;2023-04-26T07:51:52;100580.88;;;7.58;81.40
7200;BME280;3641;49.082;8.200;2023-04-26T07:54:19;100582.16;;;7.45;77.54
7200;BME280;3641;49.082;8.200;2023-04-26T07:56:47;100575.59;;;7.56;80.38
7200;BME280;3641;49.082;8.200;2023-04-26T07:59:13;100577.97;;;7.59;80.40
7200;BME280;3641;49.082;8.200;2023-04-26T08:01:40;100576.09;;;7.86;81.13
7200;BME280;3641;49.082;8.200;2023-04-26T08:04:06;100582.44;;;7.95;80.15
7200;BME280;3641;49.082;8.200;2023-04-26T08:06:33;100568.13;;;7.93;80.44
7200;BME280;3641;49.082;8.200;2023-04-26T08:09:00;100575.31;;;8.02;79.18
7200;BME280;3641;49.082;8.200;2023-04-26T08:11:27;100574.94;;;7.89;75.70
7200;BME280;3641;49.082;8.200;2023-04-26T08:13:55;100572.59;;;8.02;77.20
7200;BME280;3641;49.082;8.200;2023-04-26T08:16:21;100570.59;;;8.04;76.10
7200;BME280;3641;49.082;8.200;2023-04-26T08:18:48;100578.03;;;8.02;75.98
7200;BME280;3641;49.082;8.200;2023-04-26T08:21:14;100579.28;;;8.16;77.53
7200;BME280;3641;49.082;8.200;2023-04-26T08:23:40;100570.28;;;8.15;74.95
7200;BME280;3641;49.082;8.200;2023-04-26T08:26:07;100576.06;;;8.12;72.68
7200;BME280;3641;49.082;8.200;2023-04-26T08:28:33;100579.00;;;8.35;73.59
7200;BME280;3641;49.082;8.200;2023-04-26T08:31:02;100576.97;;;8.37;75.56
7200;BME280;3641;49.082;8.200;2023-04-26T08:33:28;100572.72;;;8.35;76.44
7200;BME280;3641;49.082;8.200;2023-04-26T08:35:55;100573.06;;;8.32;75.15
7200;BME280;3641;49.082;8.200;2023-04-26T08:38:21;100572.78;;;8.43;72.74
7200;BME280;3641;49.082;8.200;2023-04-26T08:40:50;100568.19;;;8.52;73.64
7200;BME280;3641;49.082;8.200;2023-04-26T08:43:16;100560.41;;;8.65;74.18
7200;BME280;3641;49.082;8.200;2023-04-26T08:45:44;100552.25;;;8.65;73.24
7200;BME280;3641;49.082;8.200;2023-04-26T08:48:12;100560.75;;;8.70;70.61
7200;BME280;3641;49.082;8.200;2023-04-26T08:50:42;100553.66;;;8.78;72.52
7200;BME280;3641;49.082;8.200;2023-04-26T08:53:12;100550.53;;;8.64;68.40
7200;BME280;3641;49.082;8.200;2023-04-26T08:55:40;100542.75;;;8.78;71.60
7200;BME280;3641;49.082;8.200;2023-04-26T08:58:07;100551.25;;;8.91;64.79
7200;BME280;3641;49.082;8.200;2023-04-26T09:00:34;100550.25;;;8.92;60.82
7200;BME280;3641;49.082;8.200;2023-04-26T09:03:01;100555.19;;;9.05;68.34
7200;BME280;3641;49.082;8.200;2023-04-26T09:05:29;100550.41;;;9.07;67.60
7200;BME280;3641;49.082;8.200;2023-04-26T09:07:59;100542.41;;;9.05;62.89
7200;BME280;3641;49.082;8.200;2023-04-26T09:10:26;100544.28;;;9.21;67.54
7200;BME280;3641;49.082;8.200;2023-04-26T09:12:53;100541.88;;;9.26;68.05
7200;BME280;3641;49.082;8.200;2023-04-26T09:15:21;100542.38;;;9.30;66.80
7200;BME280;3641;49.082;8.200;2023-04-26T09:17:49;100537.47;;;9.34;60.44
7200;BME280;3641;49.082;8.200;2023-04-26T09:20:18;100538.78;;;9.46;67.62
7200;BME280;3641;49.082;8.200;2023-04-26T09:22:47;100546.25;;;9.52;63.83
7200;BME280;3641;49.082;8.200;2023-04-26T09:25:15;100538.75;;;9.62;64.62
7200;BME280;3641;49.082;8.200;2023-04-26T09:27:43;100538.72;;;9.71;66.17
7200;BME280;3641;49.082;8.200;2023-04-26T09:30:14;100544.19;;;9.71;66.17
7200;BME280;3641;49.082;8.200;2023-04-26T09:32:46;100538.69;;;9.79;62.15
7200;BME280;3641;49.082;8.200;2023-04-26T09:35:22;100533.72;;;9.82;60.57
7200;BME280;3641;49.082;8.200;2023-04-26T09:37:54;100533.91;;;9.89;64.37
7200;BME280;3641;49.082;8.200;2023-04-26T09:40:22;100534.56;;;9.91;67.35
7200;BME280;3641;49.082;8.200;2023-04-26T09:42:59;100527.59;;;9.89;59.30
7200;BME280;3641;49.082;8.200;2023-04-26T09:45:27;100531.75;;;10.08;61.85
7200;BME280;3641;49.082;8.200;2023-04-26T09:47:53;100533.91;;;10.21;59.83
7200;BME280;3641;49.082;8.200;2023-04-26T09:50:27;100534.81;;;10.13;65.37
7200;BME280;3641;49.082;8.200;2023-04-26T09:52:56;100536.78;;;10.27;59.29
7200;BME280;3641;49.082;8.200;2023-04-26T09:55:27;100539.69;;;10.34;58.62
7200;BME280;3641;49.082;8.200;2023-04-26T09:57:54;100530.59;;;10.42;58.24
7200;BME280;3641;49.082;8.200;2023-04-26T10:00:23;100532.72;;;10.54;58.82
7200;BME280;3641;49.082;8.200;2023-04-26T10:02:52;100537.53;;;10.52;59.05
7200;BME280;3641;49.082;8.200;2023-04-26T10:05:19;100531.22;;;10.52;64.36
7200;BME280;3641;49.082;8.200;2023-04-26T10:07:47;100520.34;;;10.67;57.30
7200;BME280;3641;49.082;8.200;2023-04-26T10:10:15;100521.81;;;10.78;55.34
7200;BME280;3641;49.082;8.200;2023-04-26T10:12:43;100516.66;;;10.83;55.22
7200;BME280;3641;49.082;8.200;2023-04-26T10:15:10;100519.88;;;10.86;60.09
7200;BME280;3641;49.082;8.200;2023-04-26T10:17:37;100518.16;;;11.08;61.98
7200;BME280;3641;49.082;8.200;2023-04-26T10:20:08;100516.09;;;10.87;61.26
7200;BME280;3641;49.082;8.200;2023-04-26T10:22:39;100518.63;;;10.74;53.57
7200;BME280;3641;49.082;8.200;2023-04-26T10:25:09;100523.56;;;10.94;56.52
7200;BME280;3641;49.082;8.200;2023-04-26T10:27:52;100514.94;;;11.05;59.11
7200;BME280;3641;49.082;8.200;2023-04-26T10:30:20;100517.31;;;11.08;54.61
7200;BME280;3641;49.082;8.200;2023-04-26T10:33:20;100509.69;;;11.18;59.27
7200;BME280;3641;49.082;8.200;2023-04-26T10:36:07;100512.50;;;11.10;60.22
7200;BME280;3641;49.082;8.200;2023-04-26T10:38:35;100515.34;;;11.17;52.56
7200;BME280;3641;49.082;8.200;2023-04-26T10:41:27;100507.81;;;11.19;59.09
7200;BME280;3641;49.082;8.200;2023-04-26T10:43:57;100510.84;;;11.24;64.06
7200;BME280;3641;49.082;8.200;2023-04-26T10:46:38;100516.88;;;11.34;55.02
7200;BME280;3641;49.082;8.200;2023-04-26T10:49:22;100502.56;;;11.32;61.29
7200;BME280;3641;49.082;8.200;2023-04-26T10:52:08;100488.16;;;11.38;49.12
7200;BME280;3641;49.082;8.200;2023-04-26T10:54:48;100493.97;;;11.50;45.02
7200;BME280;3641;49.082;8.200;2023-04-26T10:57:16;100489.38;;;11.51;49.91
7200;BME280;3641;49.082;8.200;2023-04-26T11:03:05;100471.38;;;11.56;52.20
7200;BME280;3641;49.082;8.200;2023-04-26T11:05:55;100471.38;;;11.71;52.40
7200;BME280;3641;49.082;8.200;2023-04-26T11:08:26;100467.13;;;11.69;48.32
7200;BME280;3641;49.082;8.200;2023-04-26T11:11:08;100454.97;;;11.71;49.19
7200;BME280;3641;49.082;8.200;2023-04-26T11:13:37;100466.66;;;11.65;50.97
7200;BME280;3641;49.082;8.200;2023-04-26T11:16:05;100461.28;;;11.42;57.72
7200;BME280;3641;49.082;8.200;2023-04-26T11:18:36;100459.13;;;11.52;49.89
7200;BME280;3641;49.082;8.200;2023-04-26T11:21:04;100454.41;;;11.61;46.52
7200;BME280;3641;49.082;8.200;2023-04-26T11:23:31;100447.88;;;11.47;46.73
7200;BME280;3641;49.082;8.200;2023-04-26T11:25:58;100447.63;;;11.57;47.00
7200;BME280;3641;49.082;8.200;2023-04-26T11:28:27;100446.13;;;11.39;48.05
7200;BME280;3641;49.082;8.200;2023-04-26T11:30:53;100443.91;;;11.64;57.96
7200;BME280;3641;49.082;8.200;2023-04-26T11:33:20;100433.44;;;11.83;52.17
7200;BME280;3641;49.082;8.200;2023-04-26T11:35:49;100434.88;;;11.94;55.87
7200;BME280;3641;49.082;8.200;2023-04-26T11:38:16;100432.78;;;11.96;59.77
7200;BME280;3641;49.082;8.200;2023-04-26T11:40:43;100434.84;;;11.79;50.34
7200;BME280;3641;49.082;8.200;2023-04-26T11:43:10;100431.19;;;11.72;47.28
7200;BME280;3641;49.082;8.200;2023-04-26T11:45:37;100436.03;;;11.70;46.59
7200;BME280;3641;49.082;8.200;2023-04-26T11:48:05;100428.53;;;11.78;50.45
7200;BME280;3641;49.082;8.200;2023-04-26T11:50:33;100435.19;;;12.06;53.98
7200;BME280;3641;49.082;8.200;2023-04-26T11:53:04;100424.44;;;12.19;51.52
7200;BME280;3641;49.082;8.200;2023-04-26T11:55:32;100414.69;;;12.16;53.08
7200;BME280;3641;49.082;8.200;2023-04-26T11:58:00;100423.81;;;12.24;47.07
7200;BME280;3641;49.082;8.200;2023-04-26T12:00:27;100421.63;;;12.34;52.34
7200;BME280;3641;49.082;8.200;2023-04-26T12:02:54;100429.63;;;12.35;53.82
7200;BME280;3641;49.082;8.200;2023-04-26T12:05:22;100428.13;;;12.54;47.12
7200;BME280;3641;49.082;8.200;2023-04-26T12:07:50;100413.13;;;12.50;48.53
7200;BME280;3641;49.082;8.200;2023-04-26T12:10:21;100418.22;;;12.75;47.03
7200;BME280;3641;49.082;8.200;2023-04-26T12:12:49;100418.41;;;12.74;48.51
7200;BME280;3641;49.082;8.200;2023-04-26T12:15:16;100414.75;;;12.66;49.71
7200;BME280;3641;49.082;8.200;2023-04-26T12:17:56;100419.44;;;12.72;48.59
7200;BME280;3641;49.082;8.200;2023-04-26T12:20:28;100420.66;;;12.92;45.63
7200;BME280;3641;49.082;8.200;2023-04-26T12:22:59;100417.13;;;12.98;47.08
7200;BME280;3641;49.082;8.200;2023-04-26T12:25:27;100412.22;;;13.21;47.42
7200;BME280;3641;49.082;8.200;2023-04-26T12:27:54;100411.84;;;13.31;48.81
7200;BME280;3641;49.082;8.200;2023-04-26T12:30:21;100408.03;;;13.32;49.41
7200;BME280;3641;49.082;8.200;2023-04-26T12:32:50;100415.75;;;13.15;43.35
7200;BME280;3641;49.082;8.200;2023-04-26T12:35:17;100411.09;;;13.09;50.39
7200;BME280;3641;49.082;8.200;2023-04-26T12:37:43;100412.13;;;13.08;51.18
7200;BME280;3641;49.082;8.200;2023-04-26T12:40:11;100408.78;;;13.13;57.28
7200;BME280;3641;49.082;8.200;2023-04-26T12:42:39;100407.34;;;12.88;45.40
7200;BME280;3641;49.082;8.200;2023-04-26T12:45:06;100409.06;;;12.89;49.16
7200;BME280;3641;49.082;8.200;2023-04-26T12:47:33;100411.94;;;12.81;50.40
7200;BME280;3641;49.082;8.200;2023-04-26T12:49:59;100416.69;;;12.94;57.63
7200;BME280;3641;49.082;8.200;2023-04-26T12:52:26;100412.44;;;12.92;58.82
7200;BME280;3641;49.082;8.200;2023-04-26T12:54:53;100416.81;;;12.86;53.44
7200;BME280;3641;49.082;8.200;2023-04-26T12:57:19;100411.25;;;12.51;45.02
7200;BME280;3641;49.082;8.200;2023-04-26T12:59:47;100408.44;;;12.66;50.59
7200;BME280;3641;49.082;8.200;2023-04-26T13:02:13;100412.81;;;12.88;50.70
7200;BME280;3641;49.082;8.200;2023-04-26T13:04:40;100407.31;;;12.60;44.88
7200;BME280;3641;49.082;8.200;2023-04-26T13:07:07;100410.59;;;12.70;45.49
7200;BME280;3641;49.082;8.200;2023-04-26T13:09:34;100410.72;;;12.90;46.24
7200;BME280;3641;49.082;8.200;2023-04-26T13:12:00;100406.00;;;13.06;53.11
7200;BME280;3641;49.082;8.200;2023-04-26T13:14:27;100411.00;;;12.96;52.36
7200;BME280;3641;49.082;8.200;2023-04-26T13:16:55;100404.56;;;13.10;48.69
7200;BME280;3641;49.082;8.200;2023-04-26T13:19:21;100407.03;;;13.05;45.62
7200;BME280;3641;49.082;8.200;2023-04-26T13:21:48;100391.13;;;13.22;43.77
7200;BME280;3641;49.082;8.200;2023-04-26T13:24:16;100398.91;;;13.18;49.87
7200;BME280;3641;49.082;8.200;2023-04-26T13:26:43;100401.91;;;13.23;52.02